Time;durP1;ratioP1;P1;durP2;ratioP2;P2;SDS_P1;SDS_P2;PMS_P1;PMS_P2;Temp;Humidity;BMP_temperature;BMP_pressure;BME280_temperature;BME280_humidity;BME280_pressure;Samples;Min_cycle;Max_cycle;Signal;HPM_P1;HPM_P2
2023/10/09 00:01:17;;;;;;;3.63;0.70;;;26.00;54.00;;;;;;4973665;28;20194;-70
2023/10/09 00:03:53;;;;;;;3.87;1.30;;;26.70;45.70;;;;;;4973085;28;20218;-70
2023/10/09 00:11:56;;;;;;;4.20;0.90;;;27.20;36.10;;;;;;4972164;28;20286;-68
2023/10/09 00:14:40;;;;;;;2.33;0.80;;;27.30;36.60;;;;;;4973269;28;20268;-68
2023/10/09 00:19:43;;;;;;;1.97;0.80;;;26.40;32.20;;;;;;4972444;28;20262;-69
2023/10/09 00:22:19;;;;;;;3.10;0.97;;;26.90;30.10;;;;;;4973075;28;20246;-68
2023/10/09 00:24:49;;;;;;;3.00;1.03;;;27.40;32.20;;;;;;4972240;28;20666;-69
2023/10/09 00:27:22;;;;;;;2.57;0.97;;;26.90;26.00;;;;;;4990280;28;20194;-67
2023/10/09 00:29:54;;;;;;;4.77;0.87;;;27.40;28.90;;;;;;4992484;28;20186;-68
2023/10/09 00:32:26;;;;;;;4.67;0.93;;;27.70;26.00;;;;;;4986926;28;20198;-69
2023/10/09 00:34:58;;;;;;;4.17;0.60;;;27.90;27.70;;;;;;4972312;28;20207;-69
2023/10/09 00:37:32;;;;;;;3.27;1.23;;;28.10;24.20;;;;;;4973108;28;20194;-70
2023/10/09 00:40:12;;;;;;;3.70;1.00;;;28.00;23.50;;;;;;4972826;28;20179;-69
2023/10/09 00:42:39;;;;;;;2.23;1.00;;;28.00;20.90;;;;;;4971201;28;20670;-68
2023/10/09 00:45:16;;;;;;;1.53;0.70;;;27.50;21.40;;;;;;4972968;28;20230;-70
2023/10/09 00:47:43;;;;;;;2.37;0.90;;;27.50;23.30;;;;;;4972963;28;20233;-71
2023/10/09 00:52:50;;;;;;;1.20;0.67;;;27.50;23.10;;;;;;4972751;28;20262;-70
2023/10/09 00:55:27;;;;;;;1.73;0.60;;;27.80;22.30;;;;;;4972908;28;20245;-71
2023/10/09 00:57:57;;;;;;;2.53;0.93;;;28.20;20.00;;;;;;4972435;28;20190;-70
2023/10/09 01:00:49;;;;;;;2.27;0.80;;;28.70;17.60;;;;;;4973030;28;20333;-69
2023/10/09 01:03:19;;;;;;;3.27;1.00;;;29.20;18.20;;;;;;4972337;28;20303;-70
2023/10/09 01:08:43;;;;;;;1.87;0.60;;;28.90;15.30;;;;;;4972743;28;20230;-71
2023/10/09 01:11:23;;;;;;;2.57;0.60;;;28.70;17.60;;;;;;4972748;28;20183;-70
2023/10/09 01:16:23;;;;;;;2.53;0.73;;;28.50;14.90;;;;;;4972654;28;20179;-72
2023/10/09 01:18:57;;;;;;;2.10;0.73;;;29.20;18.60;;;;;;4972603;28;20245;-70
2023/10/09 01:21:26;;;;;;;1.57;0.70;;;28.80;14.50;;;;;;4971846;28;20276;-69
2023/10/09 01:26:26;;;;;;;2.00;0.80;;;28.90;13.90;;;;;;4972597;28;20179;-71
2023/10/09 01:29:03;;;;;;;2.63;0.97;;;29.50;12.90;;;;;;4972397;28;20330;-71
2023/10/09 01:31:33;;;;;;;2.50;0.70;;;29.10;11.90;;;;;;4972580;28;20198;-69
2023/10/09 01:34:03;;;;;;;3.27;0.77;;;29.80;12.90;;;;;;4972503;28;20667;-69
2023/10/09 01:36:34;;;;;;;2.13;0.80;;;29.80;12.40;;;;;;4972098;28;20708;-69
2023/10/09 01:39:23;;;;;;;5.30;0.80;;;30.10;12.00;;;;;;4973729;28;20178;-70
2023/10/09 01:41:51;;;;;;;1.58;0.57;;;29.90;11.10;;;;;;4972171;28;20188;-70
2023/10/09 01:44:19;;;;;;;2.60;0.63;;;30.10;13.90;;;;;;4957197;28;20192;-69
2023/10/09 01:46:46;;;;;;;2.60;1.10;;;30.60;11.40;;;;;;4957147;29;20629;-70
2023/10/09 01:49:17;;;;;;;5.03;0.68;;;30.00;9.60;;;;;;4956402;29;20215;-70
2023/10/09 01:51:45;;;;;;;2.80;0.60;;;30.40;10.20;;;;;;4957192;29;20246;-70
2023/10/09 01:54:27;;;;;;;1.60;0.57;;;30.40;8.10;;;;;;4966292;28;20187;-69
2023/10/09 01:57:05;;;;;;;1.93;0.70;;;30.20;7.10;;;;;;4969577;28;20183;-68
2023/10/09 01:59:38;;;;;;;3.53;0.80;;;29.90;11.30;;;;;;4970965;28;20180;-71
2023/10/09 02:02:33;;;;;;;2.30;0.60;;;30.40;9.30;;;;;;4971952;28;20187;-70
2023/10/09 02:05:24;;;;;;;3.40;0.63;;;30.30;6.60;;;;;;4971765;28;20326;-71
2023/10/09 02:07:52;;;;;;;1.97;0.57;;;30.50;9.30;;;;;;4972990;28;20294;-70
2023/10/09 02:13:06;;;;;;;2.27;0.80;;;30.20;6.20;;;;;;4975569;28;20231;-70
2023/10/09 02:23:50;;;;;;;6.13;0.73;;;29.40;8.20;;;;;;4976000;28;20221;-70
2023/10/09 02:31:44;;;;;;;3.70;0.90;;;29.40;7.80;;;;;;4972741;28;20187;-70
2023/10/09 02:34:12;;;;;;;4.87;0.83;;;29.60;7.70;;;;;;4975106;28;20214;-69
2023/10/09 02:36:57;;;;;;;1.23;0.57;;;30.10;9.20;;;;;;4975704;28;20198;-69
2023/10/09 02:39:28;;;;;;;2.77;0.80;;;29.10;7.20;;;;;;4975631;28;20266;-71
2023/10/09 02:42:08;;;;;;;2.07;0.80;;;29.90;11.30;;;;;;4975129;28;20183;-68
2023/10/09 02:44:40;;;;;;;3.73;0.80;;;30.40;9.90;;;;;;4975063;28;20238;-70
2023/10/09 02:47:17;;;;;;;2.17;0.97;;;30.90;6.70;;;;;;4974923;28;20187;-68
2023/10/09 02:49:48;;;;;;;1.83;0.60;;;30.30;6.60;;;;;;4974508;28;20667;-70
2023/10/09 02:52:19;;;;;;;5.73;1.13;;;30.70;7.40;;;;;;4974575;28;20195;-69
2023/10/09 02:54:47;;;;;;;1.65;0.88;;;30.50;7.70;;;;;;4974912;28;20279;-69
2023/10/09 02:57:27;;;;;;;1.33;0.80;;;30.30;6.00;;;;;;4974641;28;20183;-70
2023/10/09 02:59:55;;;;;;;4.40;1.40;;;30.20;5.10;;;;;;4973814;28;20290;-72
2023/10/09 03:02:24;;;;;;;2.47;1.20;;;30.20;4.30;;;;;;4974815;28;20184;-71
2023/10/09 03:04:55;;;;;;;1.57;0.80;;;29.80;2.90;;;;;;4974470;28;20198;-70
2023/10/09 03:07:23;;;;;;;3.87;1.00;;;29.70;4.30;;;;;;4974982;28;20187;-71
2023/10/09 03:09:50;;;;;;;2.20;1.00;;;29.30;3.10;;;;;;4974951;28;20253;-72
2023/10/09 03:12:18;;;;;;;2.37;0.87;;;29.70;5.20;;;;;;4974179;28;20180;-73
2023/10/09 03:14:46;;;;;;;2.43;1.10;;;30.00;3.40;;;;;;4973542;28;20285;-71
2023/10/09 03:17:13;;;;;;;2.23;0.87;;;30.10;5.00;;;;;;4974892;28;20652;-72
2023/10/09 03:19:43;;;;;;;2.03;0.90;;;30.00;3.50;;;;;;4974420;28;20279;-75
2023/10/09 03:22:10;;;;;;;2.50;0.90;;;29.80;4.50;;;;;;4974716;28;20231;-69
2023/10/09 03:24:41;;;;;;;2.73;1.20;;;29.60;2.60;;;;;;4974282;28;20548;-68
2023/10/09 03:27:08;;;;;;;4.00;1.47;;;29.70;3.00;;;;;;4974145;28;20191;-68
2023/10/09 03:29:37;;;;;;;3.30;1.20;;;29.40;5.00;;;;;;4974324;28;20620;-68
2023/10/09 03:32:06;;;;;;;4.23;1.50;;;29.50;7.10;;;;;;4974660;28;20191;-68
2023/10/09 03:34:33;;;;;;;2.80;1.37;;;29.70;6.50;;;;;;4973931;28;20298;-68
2023/10/09 03:37:21;;;;;;;3.47;1.30;;;29.40;4.00;;;;;;4974556;28;20238;-68
2023/10/09 03:39:51;;;;;;;6.87;1.50;;;29.50;5.30;;;;;;4974108;28;20187;-68
2023/10/09 03:42:22;;;;;;;2.33;1.00;;;29.60;5.40;;;;;;4972532;28;20175;-67
2023/10/09 03:44:53;;;;;;;4.30;1.40;;;29.60;5.40;;;;;;4974161;28;20242;-68
2023/10/09 03:47:24;;;;;;;7.00;1.43;;;29.50;4.80;;;;;;4973915;28;20180;-69
2023/10/09 03:49:53;;;;;;;1.47;1.10;;;29.40;3.60;;;;;;4974055;28;20175;-68
2023/10/09 03:52:25;;;;;;;3.13;1.20;;;29.30;5.30;;;;;;4973955;28;20180;-69
2023/10/09 03:54:52;;;;;;;4.10;1.07;;;29.30;3.40;;;;;;4973718;28;20195;-68
2023/10/09 03:57:20;;;;;;;2.03;1.40;;;29.40;4.70;;;;;;4973687;28;20216;-68
2023/10/09 03:59:48;;;;;;;2.60;1.30;;;29.70;4.20;;;;;;4973943;28;20191;-68
2023/10/09 04:02:16;;;;;;;3.40;1.17;;;29.70;3.60;;;;;;4972967;28;20180;-69
2023/10/09 04:04:47;;;;;;;2.27;1.10;;;29.90;6.50;;;;;;4972532;28;20302;-67
2023/10/09 04:07:18;;;;;;;3.43;1.20;;;29.80;5.40;;;;;;4973143;28;20880;-68
2023/10/09 04:09:53;;;;;;;3.97;1.60;;;29.80;6.80;;;;;;4973423;28;20192;-67
2023/10/09 04:12:24;;;;;;;2.47;1.13;;;29.80;4.50;;;;;;4973685;28;20183;-68
2023/10/09 04:15:05;;;;;;;4.67;1.00;;;29.70;6.30;;;;;;4973646;28;20203;-70
2023/10/09 04:17:33;;;;;;;2.70;1.00;;;29.80;6.20;;;;;;4973000;28;20202;-68
2023/10/09 04:25:51;;;;;;;1.67;0.90;;;30.10;7.00;;;;;;5141586;27;20542;-68
2023/10/09 04:30:55;;;;;;;8.17;0.90;;;30.00;4.40;;;;;;5110301;28;20185;-68
2023/10/09 04:33:42;;;;;;;2.40;0.60;;;29.70;2.90;;;;;;5105873;28;20581;-67
2023/10/09 04:41:51;;;;;;;1.27;0.60;;;29.80;3.90;;;;;;5108914;28;20181;-69
2023/10/09 04:44:24;;;;;;;1.27;0.77;;;29.80;2.00;;;;;;5110719;28;20634;-70
2023/10/09 04:58:23;;;;;;;1.70;0.50;;;29.70;1.50;;;;;;5098313;28;20178;-68
2023/10/09 05:00:46;;;;;;;1.43;0.57;;;29.80;2.20;;;;;;5105921;28;20187;-68
2023/10/09 05:03:10;;;;;;;2.10;0.80;;;29.70;2.40;;;;;;5110319;28;20193;-68
2023/10/09 05:16:25;;;;;;;0.77;0.53;;;29.70;1.00;;;;;;5110165;28;20532;-68
2023/10/09 05:18:56;;;;;;;3.00;0.73;;;29.50;1.00;;;;;;5109965;28;20227;-68
2023/10/09 05:26:51;;;;;;;2.60;0.63;;;29.10;1.00;;;;;;5109960;28;20544;-68
2023/10/09 05:38:01;;;;;;;2.00;0.63;;;28.80;1.00;;;;;;5095912;28;20190;-67
2023/10/09 05:42:46;;;;;;;3.53;0.83;;;28.80;5.20;;;;;;5096078;28;20190;-68
2023/10/09 06:04:19;;;;;;;2.50;0.83;;;27.90;17.50;;;;;;5094214;28;20206;-66
2023/10/09 06:06:56;;;;;;;2.57;0.90;;;27.40;18.10;;;;;;5095415;28;20517;-67
2023/10/09 06:09:49;;;;;;;5.83;1.20;;;27.30;19.80;;;;;;5094458;28;20178;-70
2023/10/09 06:15:18;;;;;;;4.40;1.20;;;27.20;22.60;;;;;;5089431;28;20238;-68
2023/10/09 06:17:52;;;;;;;4.30;1.23;;;27.20;22.50;;;;;;5072327;28;20183;-69
2023/10/09 06:23:16;;;;;;;6.30;1.20;;;27.00;26.40;;;;;;5093642;28;20553;-68
2023/10/09 06:25:51;;;;;;;3.80;1.00;;;27.20;26.70;;;;;;5092874;28;20231;-69
2023/10/09 06:28:32;;;;;;;5.30;1.10;;;27.20;26.90;;;;;;5091373;28;20232;-67
2023/10/09 06:31:27;;;;;;;5.57;1.43;;;27.10;26.60;;;;;;5091740;28;20664;-67
2023/10/09 06:34:15;;;;;;;6.77;1.57;;;27.00;27.20;;;;;;5093110;28;20195;-68
2023/10/09 06:36:52;;;;;;;6.97;1.73;;;27.00;29.70;;;;;;5093302;28;20191;-68
2023/10/09 06:42:09;;;;;;;5.23;1.23;;;27.00;31.70;;;;;;5093190;28;20187;-67
2023/10/09 06:44:52;;;;;;;3.23;1.33;;;27.20;33.80;;;;;;5092858;28;20271;-68
2023/10/09 06:47:23;;;;;;;5.67;1.33;;;27.10;33.40;;;;;;5091728;28;20262;-69
2023/10/09 06:56:01;;;;;;;4.80;1.33;;;26.50;32.60;;;;;;5090625;28;20254;-68
2023/10/09 06:58:28;;;;;;;4.63;1.17;;;26.40;35.20;;;;;;5062523;28;20192;-68
2023/10/09 07:03:33;;;;;;;8.77;1.17;;;25.90;38.00;;;;;;5073623;28;20180;-68
2023/10/09 07:06:23;;;;;;;3.90;1.20;;;25.70;43.10;;;;;;5074988;28;20213;-67
2023/10/09 07:17:00;;;;;;;2.03;1.10;;;25.00;52.90;;;;;;5092154;28;20179;-68
2023/10/09 07:25:14;;;;;;;4.97;1.10;;;24.70;64.50;;;;;;5082722;28;20231;-68
2023/10/09 07:33:56;;;;;;;5.90;1.17;;;24.30;66.10;;;;;;5092420;28;20183;-68
2023/10/09 07:35:57;;;;;;;2.00;0.80;;;24.10;64.50;;;;;;5091094;28;20202;-67
2023/10/09 07:38:29;;;;;;;5.63;1.27;;;24.00;69.30;;;;;;5092260;28;20228;-67
2023/10/09 07:43:39;;;;;;;1.73;0.80;;;23.50;72.30;;;;;;5092384;28;20187;-68
2023/10/09 07:46:32;;;;;;;5.90;1.20;;;23.30;73.60;;;;;;5092375;28;20183;-68
2023/10/09 07:49:12;;;;;;;5.27;1.20;;;23.10;77.40;;;;;;5093240;28;20266;-68
2023/10/09 07:51:46;;;;;;;4.03;1.10;;;22.90;77.10;;;;;;5073550;28;20180;-68
2023/10/09 07:54:31;;;;;;;8.57;1.00;;;22.80;83.10;;;;;;5079899;28;20175;-68
2023/10/09 07:57:17;;;;;;;3.57;1.03;;;22.70;85.80;;;;;;5092361;28;20597;-68
2023/10/09 08:02:32;;;;;;;5.20;1.33;;;22.60;90.80;;;;;;5092419;28;20274;-68
2023/10/09 08:05:20;;;;;;;2.27;0.90;;;22.40;92.70;;;;;;5092032;28;20214;-68
2023/10/09 08:07:57;;;;;;;3.60;1.10;;;22.30;97.00;;;;;;5091987;28;20199;-68
2023/10/09 08:12:57;;;;;;;3.90;1.10;;;22.00;99.90;;;;;;5092935;28;20577;-68
2023/10/09 08:15:51;;;;;;;2.17;1.27;;;21.90;99.90;;;;;;5090325;28;20175;-68
2023/10/09 08:18:27;;;;;;;5.47;1.33;;;21.80;99.90;;;;;;5092906;28;20179;-68
2023/10/09 08:23:47;;;;;;;2.67;1.40;;;21.60;99.90;;;;;;5092860;28;20278;-68
2023/10/09 08:26:29;;;;;;;7.67;1.60;;;21.60;99.90;;;;;;5090307;28;20240;-67
2023/10/09 08:32:17;;;;;;;5.90;1.40;;;21.40;99.90;;;;;;5083640;28;20187;-68
2023/10/09 08:34:53;;;;;;;3.63;0.93;;;21.30;99.90;;;;;;5092938;28;20226;-68
2023/10/09 08:37:25;;;;;;;5.00;2.07;;;21.20;99.90;;;;;;5092138;28;20277;-68
2023/10/09 08:39:54;;;;;;;20.80;4.90;;;21.20;99.90;;;;;;5093075;28;20639;-68
2023/10/09 08:42:23;;;;;;;28.60;7.40;;;21.10;99.90;;;;;;5093250;28;20175;-66
2023/10/09 08:44:53;;;;;;;12.47;2.83;;;21.00;99.90;;;;;;5092320;28;20215;-67
2023/10/09 08:47:21;;;;;;;4.23;1.23;;;21.00;99.90;;;;;;5091460;28;20171;-69
2023/10/09 08:49:51;;;;;;;9.60;2.63;;;20.90;99.90;;;;;;5091972;28;20182;-68
2023/10/09 08:52:22;;;;;;;15.03;5.63;;;20.70;99.90;;;;;;5090930;28;20183;-69
2023/10/09 08:54:51;;;;;;;15.40;5.03;;;20.60;99.90;;;;;;5075642;28;20255;-67
2023/10/09 08:57:20;;;;;;;10.97;3.07;;;20.60;99.90;;;;;;5091980;28;20186;-67
2023/10/09 08:59:48;;;;;;;5.10;2.60;;;20.60;99.90;;;;;;5093195;28;20259;-67
2023/10/09 09:02:18;;;;;;;23.83;7.70;;;20.40;99.90;;;;;;5093017;28;20175;-68
2023/10/09 09:04:50;;;;;;;18.93;5.73;;;20.40;99.90;;;;;;5092263;28;20246;-68
2023/10/09 09:07:33;;;;;;;16.63;5.67;;;20.30;99.90;;;;;;5092804;28;20186;-68
2023/10/09 09:10:17;;;;;;;18.73;4.83;;;20.40;99.90;;;;;;5092983;28;20183;-70
2023/10/09 09:12:55;;;;;;;9.63;2.87;;;20.20;99.90;;;;;;5097220;28;20598;-68
2023/10/09 09:15:26;;;;;;;7.37;2.83;;;20.10;99.90;;;;;;5096658;28;20182;-68
2023/10/09 09:18:10;;;;;;;3.47;1.40;;;20.00;99.90;;;;;;5095676;28;20223;-68
2023/10/09 09:20:40;;;;;;;16.27;6.97;;;19.90;99.90;;;;;;5095726;28;20178;-68
2023/10/09 09:23:14;;;;;;;9.00;2.63;;;19.80;99.90;;;;;;5096796;28;20182;-68
2023/10/09 09:26:11;;;;;;;9.07;2.60;;;19.70;99.90;;;;;;5094869;28;20702;-69
2023/10/09 09:28:55;;;;;;;5.80;1.77;;;19.60;99.90;;;;;;5096374;28;20182;-68
2023/10/09 09:31:37;;;;;;;1.97;1.40;;;19.50;99.90;;;;;;5096407;28;20183;-67
2023/10/09 09:34:22;;;;;;;5.03;1.97;;;19.40;99.90;;;;;;5096222;28;20270;-68
2023/10/09 09:37:03;;;;;;;4.10;1.40;;;19.40;99.90;;;;;;5094873;28;20634;-68
2023/10/09 09:39:33;;;;;;;3.93;1.30;;;19.30;99.90;;;;;;5095494;28;20207;-67
2023/10/09 09:42:13;;;;;;;3.07;1.20;;;19.20;99.90;;;;;;5096171;28;20215;-68
2023/10/09 09:44:45;;;;;;;3.97;1.40;;;19.10;99.90;;;;;;5095314;28;20618;-69
2023/10/09 09:47:23;;;;;;;5.10;1.60;;;19.00;99.90;;;;;;5096231;28;20177;-69
2023/10/09 09:49:59;;;;;;;3.37;1.43;;;19.00;99.90;;;;;;5094937;28;20187;-68
2023/10/09 09:52:40;;;;;;;7.73;2.67;;;19.00;99.90;;;;;;5096082;28;20171;-69
2023/10/09 09:55:17;;;;;;;6.00;1.93;;;18.90;99.90;;;;;;5094907;28;20521;-68
2023/10/09 09:57:53;;;;;;;4.67;2.03;;;18.90;99.90;;;;;;5093711;28;20187;-68
2023/10/09 10:00:30;;;;;;;3.83;1.73;;;18.80;99.90;;;;;;5093065;28;20213;-68
2023/10/09 10:03:12;;;;;;;8.47;1.77;;;18.90;99.90;;;;;;5095857;28;20174;-68
2023/10/09 10:05:46;;;;;;;5.20;1.87;;;18.80;99.90;;;;;;5094610;28;20227;-69
2023/10/09 10:08:22;;;;;;;4.47;1.83;;;18.70;99.90;;;;;;5077619;28;20175;-69
2023/10/09 10:10:52;;;;;;;5.03;1.93;;;18.60;99.90;;;;;;5083287;28;20179;-70
2023/10/09 10:13:42;;;;;;;9.90;3.43;;;18.50;99.90;;;;;;5095640;28;20221;-68
2023/10/09 10:19:22;;;;;;;11.90;5.60;;;18.40;99.90;;;;;;5095293;28;20215;-69
2023/10/09 10:21:50;;;;;;;13.93;10.87;;;18.40;99.90;;;;;;5095046;28;20730;-68
2023/10/09 10:24:52;;;;;;;15.90;11.90;;;18.20;99.90;;;;;;5094837;28;20226;-68
2023/10/09 10:27:26;;;;;;;10.13;7.50;;;18.10;99.90;;;;;;5095072;28;20266;-68
2023/10/09 10:30:13;;;;;;;7.23;6.00;;;18.00;99.90;;;;;;5095435;28;20187;-68
2023/10/09 10:32:58;;;;;;;10.53;4.70;;;17.90;99.90;;;;;;5095248;28;20185;-69
2023/10/09 10:35:44;;;;;;;6.93;3.23;;;17.80;99.90;;;;;;5095244;28;20179;-68
2023/10/09 10:38:25;;;;;;;5.37;2.20;;;17.70;99.90;;;;;;5095199;28;20186;-69
2023/10/09 10:41:00;;;;;;;8.37;2.73;;;17.60;99.90;;;;;;5094142;28;20243;-69
2023/10/09 10:43:47;;;;;;;8.13;2.17;;;17.50;99.90;;;;;;5094957;28;20236;-68
2023/10/09 10:46:24;;;;;;;5.13;1.80;;;17.50;99.90;;;;;;5095069;28;20531;-69
2023/10/09 10:48:59;;;;;;;4.57;1.97;;;17.50;99.90;;;;;;5094946;28;20633;-68
2023/10/09 10:51:38;;;;;;;5.93;2.27;;;17.40;99.90;;;;;;5094871;28;20198;-68
2023/10/09 10:56:57;;;;;;;8.90;2.93;;;17.40;99.90;;;;;;5095056;28;20547;-69
2023/10/09 10:59:26;;;;;;;4.97;2.37;;;17.30;99.90;;;;;;5095163;28;20179;-68
2023/10/09 11:02:22;;;;;;;5.07;2.60;;;17.20;99.90;;;;;;5094695;28;20182;-68
2023/10/09 11:05:14;;;;;;;6.17;2.00;;;17.20;99.90;;;;;;5094408;28;20216;-68
2023/10/09 11:07:41;;;;;;;5.57;2.23;;;17.20;99.90;;;;;;5094309;28;20187;-68
2023/10/09 11:10:10;;;;;;;3.50;2.17;;;17.00;99.90;;;;;;5094427;28;20178;-69
2023/10/09 11:13:30;;;;;;;7.50;2.73;;;16.90;99.90;;;;;;5094430;28;20187;-68
2023/10/09 11:18:48;;;;;;;5.03;2.10;;;16.80;99.90;;;;;;5094280;28;20178;-68
2023/10/09 11:23:57;;;;;;;6.60;2.50;;;16.70;99.90;;;;;;5092849;28;20269;-69
2023/10/09 11:26:28;;;;;;;5.27;2.43;;;16.60;99.90;;;;;;5093549;28;20652;-69
2023/10/09 11:32:19;;;;;;;6.93;2.40;;;16.60;99.90;;;;;;5092151;28;20230;-67
2023/10/09 11:34:54;;;;;;;9.17;2.60;;;16.50;99.90;;;;;;5092932;28;20214;-67
2023/10/09 11:37:39;;;;;;;7.53;2.87;;;16.40;99.90;;;;;;5093599;28;20190;-68
2023/10/09 11:40:23;;;;;;;15.00;2.90;;;16.50;99.90;;;;;;5093583;28;20219;-68
2023/10/09 11:42:57;;;;;;;5.90;2.60;;;16.50;99.90;;;;;;5092981;28;20182;-68
2023/10/09 11:45:37;;;;;;;7.17;3.00;;;16.40;99.90;;;;;;5093136;28;20237;-68
2023/10/09 11:48:46;;;;;;;4.67;2.20;;;16.40;99.90;;;;;;5093659;28;20181;-68
2023/10/09 11:51:19;;;;;;;6.47;2.57;;;16.30;99.90;;;;;;5093536;28;20274;-68
2023/10/09 11:53:50;;;;;;;5.73;2.37;;;16.30;99.90;;;;;;5093297;28;20182;-68
2023/10/09 11:56:19;;;;;;;7.97;2.17;;;16.30;99.90;;;;;;5093148;28;20548;-68
2023/10/09 11:58:51;;;;;;;6.87;2.20;;;16.20;99.90;;;;;;5092941;28;20644;-68
2023/10/09 12:01:23;;;;;;;8.03;2.63;;;16.20;99.90;;;;;;5084844;28;20187;-68
2023/10/09 12:03:52;;;;;;;3.97;2.13;;;16.20;99.90;;;;;;5091843;28;20689;-68
2023/10/09 12:06:23;;;;;;;10.07;3.13;;;16.10;99.90;;;;;;5093154;28;20656;-68
2023/10/09 12:08:51;;;;;;;6.57;2.07;;;16.00;99.90;;;;;;5075854;28;20183;-68
2023/10/09 12:11:33;;;;;;;9.53;2.20;;;16.00;99.90;;;;;;5092929;28;20206;-68
2023/10/09 12:14:03;;;;;;;6.33;2.23;;;15.90;99.90;;;;;;5092551;28;20179;-68
2023/10/09 12:16:32;;;;;;;6.20;2.50;;;15.90;99.90;;;;;;5091663;28;20329;-69
2023/10/09 12:19:02;;;;;;;4.57;2.23;;;15.80;99.90;;;;;;5092600;28;20179;-68
2023/10/09 12:21:30;;;;;;;5.67;2.03;;;15.80;99.90;;;;;;5091502;28;20270;-68
2023/10/09 12:23:59;;;;;;;5.43;2.20;;;15.80;99.90;;;;;;5091324;28;20262;-68
2023/10/09 12:26:28;;;;;;;7.10;2.30;;;15.80;99.90;;;;;;5093159;28;20191;-68
2023/10/09 12:28:57;;;;;;;5.57;2.20;;;15.80;99.90;;;;;;5092357;28;20174;-68
2023/10/09 12:31:33;;;;;;;9.23;2.63;;;15.80;99.90;;;;;;5090173;28;20270;-68
2023/10/09 12:34:02;;;;;;;8.37;2.53;;;15.80;99.90;;;;;;5093063;28;20544;-68
2023/10/09 12:36:37;;;;;;;8.23;2.40;;;15.70;99.90;;;;;;5093077;28;20572;-69
2023/10/09 12:39:05;;;;;;;3.53;1.97;;;15.70;99.90;;;;;;5091396;28;20582;-68
2023/10/09 12:41:41;;;;;;;8.77;2.07;;;15.60;99.90;;;;;;5092842;28;20211;-68
2023/10/09 12:44:14;;;;;;;6.77;2.60;;;15.50;99.90;;;;;;5091829;28;20594;-68
2023/10/09 12:46:54;;;;;;;8.37;2.00;;;15.50;99.90;;;;;;5095458;28;20193;-68
2023/10/09 12:49:26;;;;;;;7.33;2.20;;;15.50;99.90;;;;;;5096813;28;20532;-68
2023/10/09 12:51:55;;;;;;;7.87;2.47;;;15.50;99.90;;;;;;5097012;28;20185;-67
2023/10/09 12:54:31;;;;;;;7.13;2.23;;;15.50;99.90;;;;;;5096787;28;20187;-66
2023/10/09 12:56:59;;;;;;;7.40;2.60;;;15.40;99.90;;;;;;5095776;28;20202;-67
2023/10/09 12:59:28;;;;;;;7.97;2.50;;;15.30;99.90;;;;;;5095600;28;20179;-67
2023/10/09 13:01:58;;;;;;;7.03;2.03;;;15.30;99.90;;;;;;5096937;28;20583;-67
2023/10/09 13:04:31;;;;;;;9.47;3.03;;;15.30;99.90;;;;;;5096623;28;20211;-67
2023/10/09 13:07:03;;;;;;;6.43;2.30;;;15.20;99.90;;;;;;5095275;28;20190;-67
2023/10/09 13:09:42;;;;;;;7.60;2.60;;;15.20;99.90;;;;;;5096654;28;20195;-68
2023/10/09 13:12:17;;;;;;;7.53;2.13;;;15.10;99.90;;;;;;5097085;28;20194;-68
2023/10/09 13:14:47;;;;;;;6.03;2.23;;;15.10;99.90;;;;;;5096949;28;20666;-68
2023/10/09 13:17:14;;;;;;;8.17;2.10;;;15.00;99.90;;;;;;5096502;28;20214;-68
2023/10/09 13:19:43;;;;;;;5.43;2.00;;;15.00;99.90;;;;;;5096257;28;20214;-67
2023/10/09 13:22:12;;;;;;;6.73;2.07;;;15.00;99.90;;;;;;5095615;28;20651;-67
2023/10/09 13:24:41;;;;;;;6.80;2.13;;;15.00;99.90;;;;;;5095747;28;20703;-68
2023/10/09 13:27:09;;;;;;;6.23;2.10;;;15.00;99.90;;;;;;5078461;28;20272;-67
2023/10/09 13:29:39;;;;;;;6.83;2.40;;;14.90;99.90;;;;;;5096175;28;20222;-67
2023/10/09 13:32:14;;;;;;;5.07;1.77;;;15.00;99.90;;;;;;5096722;28;20225;-67
2023/10/09 13:34:44;;;;;;;8.37;2.37;;;15.00;99.90;;;;;;5096422;28;20639;-67
2023/10/09 13:37:21;;;;;;;5.70;1.67;;;15.10;99.90;;;;;;5095985;28;20262;-67
2023/10/09 13:39:52;;;;;;;8.20;2.40;;;15.10;99.90;;;;;;5094994;28;20717;-67
2023/10/09 13:42:24;;;;;;;11.93;2.37;;;15.20;99.90;;;;;;5095287;28;20205;-67
2023/10/09 13:44:55;;;;;;;12.37;2.60;;;15.20;99.90;;;;;;5095927;28;21011;-67
2023/10/09 13:47:29;;;;;;;5.97;2.30;;;15.20;99.90;;;;;;5095851;28;20175;-67
2023/10/09 13:49:57;;;;;;;8.83;2.40;;;15.20;99.90;;;;;;5095931;28;20575;-68
2023/10/09 13:52:24;;;;;;;13.13;3.30;;;15.30;99.90;;;;;;5096055;28;20223;-68
2023/10/09 13:54:55;;;;;;;11.20;2.37;;;15.30;99.90;;;;;;5095973;28;20265;-68
2023/10/09 13:57:30;;;;;;;7.53;2.17;;;15.30;99.90;;;;;;5095336;28;20178;-68
2023/10/09 14:00:00;;;;;;;9.13;2.43;;;15.30;99.90;;;;;;5094574;28;20324;-68
2023/10/09 14:02:28;;;;;;;8.93;2.50;;;15.30;99.90;;;;;;5095749;28;20262;-68
2023/10/09 14:04:57;;;;;;;13.17;2.40;;;15.30;99.90;;;;;;5095473;28;20747;-68
2023/10/09 14:07:25;;;;;;;11.00;2.00;;;15.30;99.90;;;;;;5095381;28;20186;-68
2023/10/09 14:09:55;;;;;;;8.17;2.37;;;15.30;99.90;;;;;;5095603;28;20345;-68
2023/10/09 14:12:24;;;;;;;8.60;2.13;;;15.20;99.90;;;;;;5095727;28;20179;-68
2023/10/09 14:14:53;;;;;;;15.57;2.33;;;15.10;99.90;;;;;;5095587;28;20176;-68
2023/10/09 14:17:27;;;;;;;10.27;2.60;;;15.10;99.90;;;;;;5095524;28;20201;-67
2023/10/09 14:20:43;;;;;;;5.67;2.10;;;15.10;99.90;;;;;;5095171;28;20701;-68
2023/10/09 14:22:46;;;;;;;9.87;2.03;;;15.10;99.90;;;;;;5088012;28;20181;-67
2023/10/09 14:25:20;;;;;;;9.60;2.47;;;15.00;99.90;;;;;;5095220;28;20714;-68
2023/10/09 14:27:52;;;;;;;7.87;1.93;;;15.00;99.90;;;;;;5095069;28;20175;-67
2023/10/09 14:30:30;;;;;;;6.90;1.97;;;14.90;99.90;;;;;;5095057;28;20251;-68
2023/10/09 14:33:01;;;;;;;9.43;2.77;;;14.90;99.90;;;;;;5095457;28;20187;-68
2023/10/09 14:35:32;;;;;;;7.83;2.40;;;14.90;99.90;;;;;;5094820;28;20183;-68
2023/10/09 14:38:04;;;;;;;8.73;2.20;;;14.80;99.90;;;;;;5095004;28;20205;-68
2023/10/09 14:40:32;;;;;;;13.10;2.37;;;14.80;99.90;;;;;;5094868;28;20183;-67
2023/10/09 14:42:59;;;;;;;5.30;2.30;;;14.80;99.90;;;;;;5095148;28;20190;-67
2023/10/09 14:45:27;;;;;;;7.80;2.50;;;14.80;99.90;;;;;;5095144;28;20217;-67
2023/10/09 14:47:55;;;;;;;8.33;2.10;;;14.80;99.90;;;;;;5093153;28;20182;-67
2023/10/09 14:50:23;;;;;;;8.57;2.50;;;14.70;99.90;;;;;;5094474;28;20234;-68
2023/10/09 14:52:51;;;;;;;5.40;1.90;;;14.70;99.90;;;;;;5095095;28;20182;-67
2023/10/09 14:55:28;;;;;;;6.00;1.90;;;14.70;99.90;;;;;;5094559;28;20277;-67
2023/10/09 14:57:56;;;;;;;6.53;2.47;;;14.70;99.90;;;;;;5094861;28;20183;-68
2023/10/09 15:00:23;;;;;;;6.53;2.50;;;14.60;99.90;;;;;;5094244;28;20187;-67
2023/10/09 15:02:53;;;;;;;10.37;2.20;;;14.50;99.90;;;;;;5095369;28;20529;-67
2023/10/09 15:05:22;;;;;;;7.33;1.70;;;14.40;99.90;;;;;;5094537;28;20222;-67
2023/10/09 15:07:50;;;;;;;7.20;2.10;;;14.40;99.90;;;;;;5094132;28;20543;-67
2023/10/09 15:10:18;;;;;;;7.40;1.97;;;14.40;99.90;;;;;;5093729;28;20187;-68
2023/10/09 15:12:48;;;;;;;7.87;1.90;;;14.40;99.90;;;;;;5094604;28;20178;-68
2023/10/09 15:15:16;;;;;;;6.03;1.80;;;14.40;99.90;;;;;;5094583;28;20632;-67
2023/10/09 15:17:47;;;;;;;8.63;2.33;;;14.40;99.90;;;;;;5094020;28;20178;-67
2023/10/09 15:20:15;;;;;;;11.37;1.77;;;14.50;99.90;;;;;;5094228;28;20221;-67
2023/10/09 15:22:44;;;;;;;7.97;1.90;;;14.40;99.90;;;;;;5094353;28;20178;-67
2023/10/09 15:25:17;;;;;;;6.47;1.97;;;14.30;99.90;;;;;;5093629;28;20228;-67
2023/10/09 15:27:44;;;;;;;8.00;1.70;;;14.30;99.90;;;;;;5093835;28;20726;-67
2023/10/09 15:30:16;;;;;;;6.67;1.70;;;14.40;99.90;;;;;;5093897;28;20528;-67
2023/10/09 15:32:44;;;;;;;19.40;3.87;;;14.30;99.90;;;;;;5094159;28;20179;-67
2023/10/09 15:35:15;;;;;;;8.43;1.70;;;14.30;99.90;;;;;;5094123;28;20202;-67
2023/10/09 15:37:43;;;;;;;8.63;1.90;;;14.30;99.90;;;;;;5093946;28;20178;-67
2023/10/09 15:40:18;;;;;;;7.83;1.73;;;14.20;99.90;;;;;;5093632;28;20619;-67
2023/10/09 15:42:55;;;;;;;5.57;1.50;;;14.30;99.90;;;;;;5093967;28;20602;-67
2023/10/09 15:45:24;;;;;;;5.83;2.03;;;14.20;99.90;;;;;;5093617;28;20226;-67
2023/10/09 15:47:51;;;;;;;7.97;1.97;;;14.20;99.90;;;;;;5093774;28;20183;-67
2023/10/09 15:50:19;;;;;;;6.97;1.67;;;14.20;99.90;;;;;;5093305;28;20641;-67
2023/10/09 15:52:49;;;;;;;6.00;1.73;;;14.30;99.90;;;;;;5126140;27;20180;-67
2023/10/09 15:55:20;;;;;;;7.33;1.63;;;14.30;99.90;;;;;;5093499;28;20263;-67
2023/10/09 15:57:54;;;;;;;11.80;2.13;;;14.20;99.90;;;;;;5093937;28;20187;-67
2023/10/09 16:00:28;;;;;;;6.23;1.30;;;14.30;99.90;;;;;;5093589;28;20183;-67
2023/10/09 16:02:56;;;;;;;4.33;1.77;;;14.20;99.90;;;;;;5093807;28;20183;-67
2023/10/09 16:05:26;;;;;;;12.80;2.47;;;14.20;99.90;;;;;;5093458;28;20222;-67
2023/10/09 16:07:55;;;;;;;5.73;1.77;;;14.10;99.90;;;;;;5093561;28;20183;-67
2023/10/09 16:10:23;;;;;;;4.17;1.70;;;14.10;99.90;;;;;;5093019;28;20694;-67
2023/10/09 16:12:53;;;;;;;6.57;1.97;;;14.10;99.90;;;;;;5093470;28;20188;-67